createdAt,value
2022-08-29T00:00:54.055Z,60.8
2022-08-29T00:06:39.020Z,60.8
2022-08-29T00:12:19.612Z,60.7
2022-08-29T00:18:03.846Z,60.6
2022-08-29T00:23:31.473Z,60.5
2022-08-29T00:34:33.645Z,60.4
2022-08-29T00:40:16.518Z,60.4
2022-08-29T00:45:40.952Z,60.3
2022-08-29T00:51:02.553Z,60.3
2022-08-29T00:56:07.663Z,60.2
2022-08-29T01:01:27.611Z,60.1
2022-08-29T01:07:14.767Z,60.1
2022-08-29T01:13:06.156Z,60
2022-08-29T01:18:43.093Z,59.9
2022-08-29T01:23:48.891Z,59.9
2022-08-29T01:29:26.481Z,59.9
2022-08-29T01:35:38.157Z,59.8
2022-08-29T01:41:16.558Z,59.8
2022-08-29T01:46:57.926Z,59.7
2022-08-29T01:52:35.552Z,59.6
2022-08-29T01:58:16.673Z,59.6
2022-08-29T02:09:17.563Z,59.4
2022-08-29T02:14:54.303Z,59.4
2022-08-29T02:20:15.351Z,59.3
2022-08-29T02:26:20.640Z,59.3
2022-08-29T02:48:15.589Z,59.1
2022-08-29T02:54:10.776Z,59
2022-08-29T02:59:20.127Z,58.9
2022-08-29T03:04:40.961Z,58.9
2022-08-29T03:10:24.393Z,58.9
2022-08-29T03:15:47.242Z,58.8
2022-08-29T03:21:24.932Z,58.8
2022-08-29T03:27:11.087Z,58.6
2022-08-29T03:43:20.581Z,58.5
2022-08-29T03:48:59.408Z,58.5
2022-08-29T03:54:38.450Z,58.4
2022-08-29T04:00:15.795Z,58.3
2022-08-29T04:05:56.959Z,58.3
2022-08-29T04:11:34.170Z,58.3
2022-08-29T04:17:12.018Z,58.2
2022-08-29T04:22:58.516Z,58.1
2022-08-29T04:29:05.392Z,58.1
2022-08-29T04:34:52.453Z,58
2022-08-29T04:40:29.832Z,57.9
2022-08-29T04:46:06.543Z,57.9
2022-08-29T04:51:52.111Z,57.8
2022-08-29T05:08:29.191Z,57.7
2022-08-29T05:14:15.414Z,57.6
2022-08-29T05:19:59.290Z,57.6
2022-08-29T05:25:40.056Z,57.5
2022-08-29T05:31:29.659Z,57.5
2022-08-29T05:37:10.336Z,57.4
2022-08-29T05:42:49.494Z,57.4
2022-08-29T05:48:38.139Z,57.3
2022-08-29T05:54:16.263Z,57.3
2022-08-29T05:59:54.564Z,57.2
2022-08-29T06:05:37.490Z,57.2
2022-08-29T06:11:14.899Z,57.1
2022-08-29T06:16:55.943Z,57.1
2022-08-29T06:22:43.085Z,57
2022-08-29T06:28:56.853Z,57
2022-08-29T06:34:35.066Z,56.9
2022-08-29T06:40:13.227Z,56.9
2022-08-29T06:45:53.293Z,56.8
2022-08-29T06:51:36.230Z,56.8
2022-08-29T06:57:51.946Z,55.5
2022-08-29T07:03:46.792Z,55.4
2022-08-29T07:09:44.934Z,55.1
2022-08-29T07:15:30.467Z,54.8
2022-08-29T07:21:24.164Z,54.8
2022-08-29T07:27:05.838Z,54.6
2022-08-29T07:32:58.267Z,54.2
2022-08-29T07:38:56.866Z,53.7
2022-08-29T07:44:46.752Z,53.2
2022-08-29T07:50:31.170Z,52.7
2022-08-29T07:56:15.332Z,52.7
2022-08-29T08:07:33.691Z,52.6
2022-08-29T08:13:30.711Z,53.1
2022-08-29T08:19:08.245Z,53.4
2022-08-29T08:24:58.148Z,53.6
2022-08-29T08:30:37.272Z,54.1
2022-08-29T08:36:03.698Z,54.4
2022-08-29T08:41:59.990Z,54.6
2022-08-29T08:47:42.334Z,54.8
2022-08-29T08:53:08.533Z,55
2022-08-29T08:58:30.029Z,55.1
2022-08-29T09:04:08.288Z,55.3
2022-08-29T09:09:49.777Z,55.3
2022-08-29T09:15:14.147Z,55.2
2022-08-29T09:21:39.286Z,55.1
2022-08-29T09:27:26.227Z,55.1
2022-08-29T09:33:09.665Z,55.1
2022-08-29T09:39:11.720Z,55
2022-08-29T09:44:56.226Z,55
2022-08-29T09:50:34.473Z,54.9
2022-08-29T09:56:21.971Z,54.9
2022-08-29T10:02:10.372Z,54.8
2022-08-29T10:07:58.352Z,54.8
2022-08-29T10:13:23.362Z,54.7
2022-08-29T10:19:36.244Z,54.7
2022-08-29T10:25:16.303Z,54.6
2022-08-29T10:30:39.012Z,54.6
2022-08-29T10:36:11.937Z,53.9
2022-08-29T10:41:58.710Z,54.5
2022-08-29T10:47:41.278Z,54.9
2022-08-29T10:53:36.270Z,55.4
2022-08-29T10:59:19.286Z,56
2022-08-29T11:04:57.641Z,56.5
2022-08-29T11:10:37.099Z,56.8
2022-08-29T11:16:17.856Z,56.8
2022-08-29T11:22:00.463Z,56.8
2022-08-29T11:27:45.939Z,56.7
2022-08-29T11:33:26.259Z,56.6
2022-08-29T11:39:03.039Z,56.6
2022-08-29T11:46:10.481Z,56.5
2022-08-29T11:51:56.179Z,56.4
2022-08-29T11:57:34.512Z,56.4
2022-08-29T12:03:36.858Z,56.4
2022-08-29T12:09:46.015Z,56.3
2022-08-29T12:15:12.679Z,55.6
2022-08-29T12:21:15.205Z,55.6
2022-08-29T12:27:36.867Z,55.5
2022-08-29T12:33:56.450Z,55.4
2022-08-29T12:39:52.419Z,55.3
2022-08-29T12:50:38.127Z,55.3
2022-08-29T12:56:04.143Z,55.2
2022-08-29T13:01:47.257Z,55.1
2022-08-29T13:07:29.904Z,55.1
2022-08-29T13:13:14.510Z,55.1
2022-08-29T13:19:23.883Z,55
2022-08-29T13:25:06.224Z,54.9
2022-08-29T13:30:37.780Z,54.9
2022-08-29T13:36:27.281Z,54.8
2022-08-29T13:42:15.408Z,54.8
2022-08-29T13:47:55.058Z,54.7
2022-08-29T13:53:37.574Z,54.6
2022-08-29T13:59:14.269Z,54.6
2022-08-29T14:06:17.549Z,54.6
2022-08-29T14:12:00.822Z,54.5
2022-08-29T14:17:51.045Z,54.4
2022-08-29T14:23:13.317Z,54.4
2022-08-29T14:29:04.327Z,54.3
2022-08-29T14:35:07.688Z,54.3
2022-08-29T14:40:59.241Z,54.3
2022-08-29T14:46:38.806Z,54.1
2022-08-29T14:52:16.589Z,54.1
2022-08-29T14:58:40.502Z,54.1
2022-08-29T15:04:19.030Z,54
2022-08-29T15:09:54.773Z,53.9
2022-08-29T15:15:32.379Z,53.9
2022-08-29T15:22:45.219Z,53.8
2022-08-29T15:28:32.166Z,53.8
2022-08-29T15:34:11.791Z,53.7
2022-08-29T15:39:50.263Z,53.6
2022-08-29T15:45:43.260Z,53.6
2022-08-29T15:51:27.983Z,53.6
2022-08-29T15:57:06.278Z,53.5
2022-08-29T16:03:24.440Z,53.4
2022-08-29T16:09:15.487Z,53.2
